METAR Data
IDs: Format: Raw Decoded Include TAF

Data at: 1339 UTC 14 Dec 2019

PAPH 141256Z AUTO 11017G27KT 10SM FEW028 BKN033 OVC120 03/M01 A2917 RMK AO2 PK WND 09027/1253 SLP879 T00331011
PAPH 141156Z AUTO 13017G35KT 10SM SCT035 04/M02 A2920 RMK AO2 PK WND 14038/1110 SLP886 7//// T00391022 10039 21011 55055
PAPH 141056Z AUTO 14023G40KT 10SM CLR 03/M02 A2918 RMK AO2 PK WND 11040/1051 SLP881 T00331022
PAPH 140956Z AUTO 13015KT 10SM CLR 02/M02 A2925 RMK AO2 PRESFR SLP904 T00221017 FZRANO
PAPH 140856Z AUTO 12011KT 10SM CLR 01/M02 A2936 RMK AO2 SLP943 T00061022 55018 FZRANO
PAPH 140756Z AUTO 08011KT 10SM CLR 01/M03 A2930 RMK AO2 SLP923 T00061028 400391017 FZRANO
PAPH 140656Z AUTO 13009KT 10SM CLR 00/M02 A2941 RMK AO2 PRESRR SLP962 T00001017 FZRANO
PAPH 140556Z AUTO 09008KT 10SM SCT030 M01/M02 A2941 RMK AO2 SLP961 6//// T10111022 10033 21017 50003 FZRANO
PAPH 140456Z AUTO 09008KT 10SM CLR M01/M02 A2946 RMK AO2 SLP976 T10111022 FZRANO
PAPH 140356Z AUTO 10005KT 10SM CLR M02/M03 A2943 RMK AO2 SLP966 T10171028 FZRANO
PAPH 140256Z AUTO 13005KT 10SM BKN033 M01/M02 A2940 RMK AO2 SLP958 6//// T10061017 58021 FZRANO
PAPH 140156Z AUTO 16005KT 10SM OVC043 01/M01 A2945 RMK AO2 SLP973 T00061006 FZRANO
PAPH 140056Z AUTO 17005KT 10SM BKN065 02/00 A2943 RMK AO2 SLP967 T00220000 FZRANO
PAPH 132356Z AUTO 22007KT 10SM OVC060 03/01 A2947 RMK AO2 SLP978 60000 T00330006 10039 20028 51018
PAPH 132256Z AUTO 26006KT 10SM BKN038 OVC070 04/M01 A2945 RMK AO2 SLP971 T00391011
PAPH 132156Z AUTO 27007KT 10SM BKN030 OVC035 03/M01 A2947 RMK AO2 SLP978 T00331006
PAPH 132137Z AUTO 26009KT 10SM BKN028 OVC035 03/00 A2945 RMK AO2
PAPH 132120Z AUTO 26009KT 10SM FEW022 SCT027 OVC035 03/01 A2942 RMK AO2 PRESFR
PAPH 132056Z AUTO 27010KT 10SM BKN022 OVC033 03/01 A2941 RMK AO2 SLP959 60000 T00330006 55024
PAPH 132041Z AUTO 27010KT 10SM BKN020 OVC033 03/01 A2945 RMK AO2 PRESRR
PAPH 132024Z AUTO 28008KT 10SM FEW020 OVC033 03/01 A2940 RMK AO2
PAPH 131956Z AUTO 28009KT 10SM OVC023 03/01 A2940 RMK AO2 RAB1857E09 SLP957 P0000 T00330011
PAPH 131856Z AUTO 28012KT 9SM SCT017 BKN027 OVC039 03/02 A2931 RMK AO2 SLP924 T00330017
PAPH 131756Z AUTO 27014KT 10SM SCT013 BKN018 OVC031 03/02 A2948 RMK AO2 RAE53 SLP983 P0000 60012 T00330022 10039 20033 53059
PAPH 131624Z AUTO 28015KT 6SM -RA BR FEW009 BKN020 OVC026 03/03 A2931 RMK AO2 P0002
PAPH 131618Z AUTO 28014KT 3SM -RA BR FEW005 BKN009 OVC019 03/03 A2935 RMK AO2 CIG 008V012 P0002
PAPH 131609Z AUTO 27012KT 6SM -RA BR SCT009 BKN014 OVC019 03/03 A2943 RMK AO2 P0000
PAPH 131556Z AUTO 29009KT 10SM -RA BKN014 BKN019 OVC038 03/03 A2931 RMK AO2 SLP924 P0000 T00330028
PAPH 131539Z AUTO 29012KT 10SM -RA BKN012 BKN018 OVC034 03/03 A2928 RMK AO2 P0000
PAPH 131519Z AUTO 29011KT 8SM -RA FEW006 BKN018 OVC025 03/03 A2938 RMK AO2 PRESRR P0000
PAPH 131509Z AUTO 29014KT 4SM -RA BR BKN008 OVC014 03/03 A2927 RMK AO2 CIG 005V011 P0000
PAPH 131456Z AUTO 28014KT 5SM -RA BR SCT010 BKN013 OVC021 03/03 A2931 RMK AO2 SLP924 P0002 60010 T00330028 53004
PAPH 131411Z AUTO 29014KT 10SM -RA BKN015 BKN022 OVC038 04/03 A2927 RMK AO2 P0001
PAPH 131356Z AUTO 29014KT 10SM -RA BKN013 BKN018 OVC038 04/03 A2924 RMK AO2 SLP904 P0004 T00390033
PAPH 131343Z AUTO 29015KT 10SM -RA FEW005 BKN010 OVC015 04/03 A2929 RMK AO2 CIG 007V012 PRESRR P0004
PAPH 131305Z AUTO 31006KT 5SM -RA BR OVC005 04/03 A2927 RMK AO2 CIG 002V008 P0001
PAPH 131256Z AUTO 32005KT 2 1/2SM -RA BR OVC005 03/03 A2925 RMK AO2 CIG 003V009 PRESFR SLP905 P0004 T00330033
PAPH 131238Z AUTO 33005KT 2SM -RA BR OVC005 04/03 A2937 RMK AO2 CIG 003V010 PRESRR P0002
PAPH 131227Z AUTO 32006KT 1 3/4SM -RA BR OVC005 04/03 A2926 RMK AO2 CIG 003V010 P0002
PAPH 131218Z AUTO 33008KT 5SM -RA BR OVC005 04/03 A2931 RMK AO2 CIG 003V007 PRESRR P0000
PAPH 131156Z AUTO 31007KT 5SM -RA BR BKN006 OVC009 04/04 A2929 RMK AO2 CIG 003V008 PRESRR SLP921 P0002 60025 7//// T00390039 10039 20039 53019
PAPH 131153Z AUTO 31009KT 7SM -RA OVC009 04/04 A2930 RMK AO2 CIG 003V011 P0002
PAPH 131122Z AUTO 29010KT 2 1/2SM -RA BR FEW004 BKN009 OVC012 04/04 A2923 RMK AO2 VIS 2V5 CIG 007V011 P0001
PAPH 131056Z AUTO 30008KT 7SM -RA SCT009 OVC014 04/03 A2922 RMK AO2 SLP896 P0002 T00390033
PAPH 131053Z AUTO 30009KT 7SM -RA FEW009 OVC014 04/03 A2924 RMK AO2 P0002
PAPH 130956Z AUTO 32009KT 4SM -RA BR OVC012 04/03 A2928 RMK AO2 SLP915 P0002 T00390033
PAPH 130922Z AUTO 32008KT 9SM -RA BKN012 OVC024 04/03 A2920 RMK AO2 P0001
PAPH 130911Z AUTO 32007KT 10SM -RA SCT012 BKN024 OVC033 04/03 A2917 RMK AO2 PRESRR P0000
PAPH 130856Z AUTO 31009KT 10SM -RA FEW026 BKN033 OVC040 04/03 A2913 RMK AO2 SLP865 P0007 60019 T00390033 58006
PAPH 130833Z AUTO 30009KT 9SM -RA FEW012 BKN032 OVC041 04/03 A2930 RMK AO2 PRESRR P0006
PAPH 130823Z AUTO 31009KT 9SM -RA FEW008 BKN022 OVC034 04/03 A2917 RMK AO2 PRESFR P0004
PAPH 130756Z AUTO 32007KT 7SM RA BKN010 BKN014 OVC024 04/03 A2917 RMK AO2 SLP879 P0007 T00390033 400440022
PAPH 130734Z AUTO 30008KT 8SM -RA BKN010 OVC016 04/04 A2914 RMK AO2 P0004
PAPH 130721Z AUTO 30008KT 7SM -RA SCT010 BKN016 OVC030 04/04 A2916 RMK AO2 P0003
PAPH 130710Z AUTO 30007KT 6SM -RA BR SCT010 SCT016 OVC030 04/04 A2929 RMK AO2 PRESRR P0002
PAPH 130656Z AUTO 28007KT 6SM -RA BR FEW010 BKN021 OVC030 04/03 A2915 RMK AO2 SLP871 P0005 T00390033
PAPH 130644Z AUTO 28006KT 3SM -RA BR FEW008 SCT014 OVC021 04/03 A2922 RMK AO2 P0004
PAPH 130629Z AUTO 27005KT 2 1/2SM -RA BR SCT006 SCT010 OVC018 04/03 A2913 RMK AO2 P0002
PAPH 130611Z AUTO 27003KT 5SM -RA BR BKN006 BKN013 OVC018 04/03 A2921 RMK AO2 CIG 005V010 P0001
PAPH 130556Z AUTO 29004KT 5SM -RA BR SCT008 BKN014 OVC026 04/03 A2915 RMK AO2 SLP872 P0006 60032 T00390033 10044 20039 56010
PAPH 130554Z AUTO 29003KT 5SM -RA BR SCT008 BKN014 OVC026 04/03 A2915 RMK AO2 P0006
PAPH 130524Z AUTO 28004KT 7SM -RA SCT010 BKN014 OVC024 04/03 A2914 RMK AO2 P0003
PAPH 130456Z AUTO 29006KT 10SM -RA FEW006 OVC024 04/03 A2916 RMK AO2 SLP876 P0007 T00390033
PAPH 130428Z AUTO 29007KT 9SM -RA SCT008 BKN016 OVC028 04/03 A2920 RMK AO2 P0004
PAPH 130356Z AUTO 32007KT 6SM RA BR BKN006 BKN014 OVC021 04/04 A2914 RMK AO2 CIG 005V011 SLP868 P0010 T00390039
PAPH 130340Z AUTO 33006KT 7SM RA BKN006 OVC023 04/04 A2913 RMK AO2 CIG 005V011 PRESFR P0007
PAPH 130315Z AUTO 32007KT 8SM -RA BKN004 OVC032 04/04 A2913 RMK AO2 P0001
PAPH 130256Z AUTO 31007KT 10SM -RA FEW008 SCT013 OVC032 04/04 A2918 RMK AO2 SLP881 P0001 60009 T00440039 53022
PAPH 130244Z AUTO 31007KT 10SM -RA FEW008 BKN032 OVC042 04/04 A2913 RMK AO2 P0001
PAPH 130237Z AUTO 32008KT 10SM -RA SCT008 BKN013 OVC042 04/04 A2918 RMK AO2 P0001
PAPH 130228Z AUTO 32008KT 8SM -RA SCT006 SCT015 OVC042 04/04 A2912 RMK AO2 P0001
PAPH 130156Z AUTO 31007KT 9SM -RA OVC008 04/04 A2911 RMK AO2 CIG 006V010 PRESFR SLP856 P0003 T00440039